Time;durP1;ratioP1;P1;durP2;ratioP2;P2;SDS_P1;SDS_P2;PMS_P1;PMS_P2;Temp;Humidity;BMP_temperature;BMP_pressure;BME280_temperature;BME280_humidity;BME280_pressure;Samples;Min_cycle;Max_cycle;Signal;HPM_P1;HPM_P2
2020/12/09 00:01:38;;;;;;;34.40;22.50;;;2.30;99.90;;;;;;5010769;28;20407;-65
2020/12/09 00:04:04;;;;;;;34.97;22.23;;;2.40;99.90;;;;;;5010410;28;20430;-65
2020/12/09 00:06:37;;;;;;;36.40;23.83;;;2.40;99.90;;;;;;5010467;28;20180;-66
2020/12/09 00:09:14;;;;;;;31.03;21.50;;;2.40;99.90;;;;;;5014298;28;20216;-64
2020/12/09 00:11:40;;;;;;;35.00;22.17;;;2.40;99.90;;;;;;5013783;28;20920;-64
2020/12/09 00:14:07;;;;;;;31.60;20.77;;;2.40;99.90;;;;;;5013879;28;20411;-65
2020/12/09 00:16:32;;;;;;;34.57;21.83;;;2.40;99.90;;;;;;5013668;28;20908;-65
2020/12/09 00:18:59;;;;;;;32.83;20.60;;;2.40;99.90;;;;;;5013917;28;20415;-64
2020/12/09 00:21:25;;;;;;;32.03;21.43;;;2.40;99.90;;;;;;5014096;28;20173;-65
2020/12/09 00:23:51;;;;;;;35.30;22.60;;;2.40;99.90;;;;;;5013819;28;20909;-66
2020/12/09 00:26:19;;;;;;;32.30;20.80;;;2.40;99.90;;;;;;5013738;28;20176;-66
2020/12/09 00:28:45;;;;;;;34.63;21.77;;;2.50;99.90;;;;;;5013614;28;20545;-64
2020/12/09 00:31:14;;;;;;;33.93;22.23;;;2.60;99.90;;;;;;5013577;28;20477;-64
2020/12/09 00:33:39;;;;;;;32.37;20.63;;;2.70;99.90;;;;;;5013834;28;20466;-64
2020/12/09 00:36:05;;;;;;;30.57;21.53;;;2.70;99.90;;;;;;5013583;28;20411;-65
2020/12/09 00:38:30;;;;;;;32.90;19.97;;;2.80;99.90;;;;;;5013467;28;20178;-64
2020/12/09 00:40:56;;;;;;;33.33;22.03;;;2.80;99.90;;;;;;5013695;28;20626;-64
2020/12/09 00:43:21;;;;;;;31.57;20.47;;;2.80;99.90;;;;;;5013929;28;20180;-65
2020/12/09 00:45:47;;;;;;;33.03;21.77;;;2.70;99.90;;;;;;5013234;28;20184;-65
2020/12/09 00:48:13;;;;;;;29.23;20.07;;;2.70;99.90;;;;;;5013515;28;20168;-64
2020/12/09 00:50:38;;;;;;;35.23;21.27;;;2.70;99.90;;;;;;5013350;28;20180;-65
2020/12/09 00:53:04;;;;;;;31.40;21.13;;;2.60;99.90;;;;;;5013205;28;20196;-64
2020/12/09 00:55:29;;;;;;;32.97;22.13;;;2.50;99.90;;;;;;5013558;28;20211;-66
2020/12/09 00:57:56;;;;;;;32.13;21.00;;;2.50;99.90;;;;;;5013273;28;20706;-65
2020/12/09 01:00:21;;;;;;;33.57;21.70;;;2.50;99.90;;;;;;5013328;28;20230;-65
2020/12/09 01:02:47;;;;;;;29.50;19.97;;;2.60;99.90;;;;;;5013176;28;20427;-65
2020/12/09 01:05:14;;;;;;;31.93;20.80;;;2.60;99.90;;;;;;5012948;28;20176;-65
2020/12/09 01:07:40;;;;;;;31.37;21.43;;;2.60;99.90;;;;;;5012985;28;20215;-63
2020/12/09 01:10:07;;;;;;;31.97;21.10;;;2.60;99.90;;;;;;5014708;28;20455;-65
2020/12/09 01:12:33;;;;;;;32.73;20.67;;;2.60;99.90;;;;;;5012987;28;20320;-65
2020/12/09 01:14:59;;;;;;;31.30;20.37;;;2.50;99.90;;;;;;5012559;28;20494;-65
2020/12/09 01:17:31;;;;;;;32.53;20.87;;;2.50;99.90;;;;;;5013018;28;20227;-64
2020/12/09 01:19:56;;;;;;;33.57;20.43;;;2.50;99.90;;;;;;5012048;28;20207;-65
2020/12/09 01:22:22;;;;;;;33.37;21.00;;;2.50;99.90;;;;;;5012876;28;20901;-66
2020/12/09 01:24:47;;;;;;;34.97;21.70;;;2.50;99.90;;;;;;5012677;28;20270;-66
2020/12/09 01:27:13;;;;;;;33.93;21.83;;;2.50;99.90;;;;;;5012945;28;20181;-65
2020/12/09 01:29:40;;;;;;;33.77;21.70;;;2.50;99.90;;;;;;5012666;28;20661;-65
2020/12/09 01:32:05;;;;;;;33.93;21.97;;;2.60;99.90;;;;;;5012369;28;20203;-65
2020/12/09 01:34:31;;;;;;;33.57;20.90;;;2.50;99.90;;;;;;5012580;28;20976;-64
2020/12/09 01:36:59;;;;;;;33.43;20.90;;;2.50;99.90;;;;;;5012936;28;20235;-65
2020/12/09 01:39:26;;;;;;;35.47;21.93;;;2.50;99.90;;;;;;5012922;28;20713;-65
2020/12/09 01:41:52;;;;;;;33.07;21.77;;;2.50;99.90;;;;;;5012339;28;20407;-65
2020/12/09 01:44:19;;;;;;;32.37;21.50;;;2.50;99.90;;;;;;5012435;28;20927;-65
2020/12/09 01:46:44;;;;;;;35.00;22.43;;;2.50;99.90;;;;;;5012298;28;20565;-65
2020/12/09 01:49:11;;;;;;;33.27;21.30;;;2.50;99.90;;;;;;5012332;28;20415;-65
2020/12/09 01:51:37;;;;;;;30.03;20.17;;;2.50;99.90;;;;;;5012099;28;20187;-65
2020/12/09 01:54:03;;;;;;;31.20;20.83;;;2.60;99.90;;;;;;5011979;28;20415;-65
2020/12/09 01:56:28;;;;;;;31.50;20.07;;;2.60;99.90;;;;;;5012323;28;20271;-64
2020/12/09 01:58:55;;;;;;;36.40;22.40;;;2.70;99.90;;;;;;5011967;28;20184;-66
2020/12/09 02:01:22;;;;;;;31.27;20.23;;;2.80;99.90;;;;;;5012377;28;20618;-66
2020/12/09 02:03:48;;;;;;;32.80;20.67;;;2.80;99.90;;;;;;5011948;28;20423;-66
2020/12/09 02:06:15;;;;;;;40.47;20.97;;;2.70;99.90;;;;;;5012168;28;20411;-65
2020/12/09 02:08:41;;;;;;;33.63;20.37;;;2.60;99.90;;;;;;5011949;28;21000;-66
2020/12/09 02:11:07;;;;;;;29.80;20.07;;;2.60;99.90;;;;;;5032325;28;20480;-64
2020/12/09 02:13:33;;;;;;;30.30;19.93;;;2.60;99.90;;;;;;5031541;28;20490;-65
2020/12/09 02:16:00;;;;;;;32.17;21.40;;;2.50;99.90;;;;;;5031686;28;20188;-66
2020/12/09 02:18:26;;;;;;;30.90;20.30;;;2.50;99.90;;;;;;5029689;28;20176;-65
2020/12/09 02:20:52;;;;;;;31.30;20.63;;;2.40;99.90;;;;;;5011959;28;20921;-65
2020/12/09 02:23:17;;;;;;;33.13;20.93;;;2.40;99.90;;;;;;5020097;28;20454;-64
2020/12/09 02:25:45;;;;;;;30.40;19.33;;;2.40;99.90;;;;;;5031360;28;20180;-63
2020/12/09 02:28:11;;;;;;;30.83;20.90;;;2.50;99.90;;;;;;5012889;28;20645;-65
2020/12/09 02:30:37;;;;;;;34.80;21.53;;;2.50;99.90;;;;;;5031127;28;20454;-65
2020/12/09 02:33:02;;;;;;;35.50;22.70;;;2.50;99.90;;;;;;5031119;28;20572;-65
2020/12/09 02:35:28;;;;;;;32.70;20.77;;;2.60;99.90;;;;;;5011858;28;20180;-64
2020/12/09 02:37:54;;;;;;;33.23;20.83;;;2.60;99.90;;;;;;5011473;28;20634;-65
2020/12/09 02:40:21;;;;;;;33.37;21.63;;;2.70;99.90;;;;;;5011203;28;20181;-65
2020/12/09 02:42:46;;;;;;;33.10;21.63;;;2.70;99.90;;;;;;5011246;28;20185;-65
2020/12/09 02:45:12;;;;;;;33.23;20.90;;;2.80;99.90;;;;;;5011318;28;20431;-66
2020/12/09 02:47:38;;;;;;;34.07;22.37;;;2.80;99.90;;;;;;5011459;28;20185;-66
2020/12/09 02:50:03;;;;;;;33.47;22.17;;;2.80;99.90;;;;;;5011311;28;20183;-64
2020/12/09 02:52:29;;;;;;;35.60;23.27;;;2.80;99.90;;;;;;5011313;28;20196;-64
2020/12/09 02:54:55;;;;;;;34.87;21.07;;;2.80;99.90;;;;;;5011102;28;20522;-66
2020/12/09 02:57:21;;;;;;;31.43;21.13;;;2.80;99.90;;;;;;5011216;28;20416;-64
2020/12/09 02:59:46;;;;;;;32.17;22.23;;;2.80;99.90;;;;;;5011362;28;20176;-65
2020/12/09 03:02:12;;;;;;;32.57;21.00;;;2.90;99.90;;;;;;5011240;28;20179;-65
2020/12/09 03:04:38;;;;;;;31.63;21.13;;;2.90;99.90;;;;;;5011069;28;20188;-63
2020/12/09 03:07:03;;;;;;;34.30;20.87;;;3.00;99.90;;;;;;5011005;28;20188;-64
2020/12/09 03:09:29;;;;;;;34.50;21.70;;;3.00;99.90;;;;;;5012340;28;20306;-66
2020/12/09 03:11:54;;;;;;;35.60;22.33;;;3.00;99.90;;;;;;5010896;28;20188;-65
2020/12/09 03:14:20;;;;;;;33.33;21.80;;;3.00;99.90;;;;;;5004550;28;20304;-65
2020/12/09 03:16:45;;;;;;;33.03;21.47;;;3.00;99.90;;;;;;4993239;28;20196;-65
2020/12/09 03:19:30;;;;;;;30.20;21.03;;;3.00;99.90;;;;;;5010747;28;20176;-64
2020/12/09 03:21:55;;;;;;;34.20;21.83;;;2.90;99.90;;;;;;5010704;28;20176;-64
2020/12/09 03:24:21;;;;;;;36.17;21.73;;;2.90;99.90;;;;;;5010702;28;20415;-65
2020/12/09 03:26:46;;;;;;;37.23;21.03;;;2.80;99.90;;;;;;5010853;28;20677;-64
2020/12/09 03:29:12;;;;;;;34.43;21.50;;;2.80;99.90;;;;;;5010837;28;20173;-64
2020/12/09 03:31:38;;;;;;;32.57;21.63;;;2.80;99.90;;;;;;5010967;28;20262;-66
2020/12/09 03:34:03;;;;;;;31.73;21.40;;;2.80;99.90;;;;;;5010711;28;20196;-65
2020/12/09 03:36:29;;;;;;;30.43;20.50;;;2.90;99.90;;;;;;5010718;28;20200;-66
2020/12/09 03:38:54;;;;;;;36.80;21.20;;;2.80;99.90;;;;;;5010724;28;20178;-65
2020/12/09 03:41:20;;;;;;;36.10;21.73;;;2.80;99.90;;;;;;5010675;28;20172;-65
2020/12/09 03:43:45;;;;;;;36.60;21.83;;;2.80;99.90;;;;;;5012959;28;20195;-64
2020/12/09 03:46:11;;;;;;;31.67;20.10;;;2.80;99.90;;;;;;5014538;28;20172;-64
2020/12/09 03:48:36;;;;;;;29.63;19.47;;;2.80;99.90;;;;;;5014441;28;20184;-64
2020/12/09 03:51:02;;;;;;;34.23;22.07;;;2.80;99.90;;;;;;5014738;28;20263;-65
2020/12/09 03:53:31;;;;;;;32.87;20.10;;;2.80;99.90;;;;;;5014271;28;21535;-66
2020/12/09 03:55:57;;;;;;;32.23;20.20;;;2.80;99.90;;;;;;5014330;28;20180;-63
2020/12/09 03:58:23;;;;;;;34.63;20.27;;;2.90;99.90;;;;;;5014335;28;20407;-64
2020/12/09 04:00:49;;;;;;;30.30;19.30;;;2.90;99.90;;;;;;5014450;28;20677;-65
2020/12/09 04:03:14;;;;;;;29.80;19.83;;;2.90;99.90;;;;;;5014259;28;20176;-65
2020/12/09 04:05:40;;;;;;;31.93;19.90;;;3.00;99.90;;;;;;5014066;28;20176;-65
2020/12/09 04:08:05;;;;;;;29.87;19.23;;;3.10;99.90;;;;;;5014252;28;20184;-65
2020/12/09 04:10:31;;;;;;;30.87;20.03;;;3.10;99.90;;;;;;5015406;28;20310;-67
2020/12/09 04:12:56;;;;;;;31.60;19.30;;;3.20;99.90;;;;;;5013971;28;20213;-67
2020/12/09 04:15:22;;;;;;;29.73;20.07;;;3.20;99.90;;;;;;5014164;28;20180;-64
2020/12/09 04:17:47;;;;;;;28.80;18.73;;;3.30;99.90;;;;;;5013952;28;20574;-65
2020/12/09 04:20:13;;;;;;;31.83;20.77;;;3.30;99.90;;;;;;5013794;28;20172;-65
2020/12/09 04:22:39;;;;;;;31.47;20.33;;;3.30;99.90;;;;;;5013841;28;20235;-65
2020/12/09 04:25:05;;;;;;;29.57;20.73;;;3.40;99.90;;;;;;5014280;28;20180;-65
2020/12/09 04:27:30;;;;;;;31.37;18.80;;;3.40;99.90;;;;;;5014048;28;20631;-64
2020/12/09 04:29:56;;;;;;;29.20;19.20;;;3.40;99.90;;;;;;5013702;28;20204;-65
2020/12/09 04:32:21;;;;;;;27.87;19.97;;;3.40;99.90;;;;;;5013652;28;20295;-64
2020/12/09 04:34:47;;;;;;;29.00;19.63;;;3.40;99.90;;;;;;5013676;28;20183;-65
2020/12/09 04:37:13;;;;;;;29.30;19.53;;;3.40;99.90;;;;;;5014244;28;20169;-64
2020/12/09 04:39:39;;;;;;;31.43;20.97;;;3.40;99.90;;;;;;5013562;28;20964;-65
2020/12/09 04:42:05;;;;;;;27.90;19.53;;;3.30;99.90;;;;;;5013678;28;20236;-65
2020/12/09 04:44:31;;;;;;;33.17;19.80;;;3.30;99.90;;;;;;5013414;28;20665;-67
2020/12/09 04:47:02;;;;;;;31.10;20.57;;;3.30;99.90;;;;;;5013500;28;20267;-65
2020/12/09 04:49:39;;;;;;;30.47;19.90;;;3.40;99.90;;;;;;5013620;28;20227;-65
2020/12/09 04:52:16;;;;;;;29.03;20.40;;;3.30;99.90;;;;;;5013442;28;20890;-65
2020/12/09 04:54:44;;;;;;;31.43;19.43;;;3.40;99.90;;;;;;5012014;28;20948;-65
2020/12/09 04:57:22;;;;;;;28.60;19.30;;;3.30;99.90;;;;;;5013609;28;20411;-65
2020/12/09 05:00:03;;;;;;;28.87;19.47;;;3.30;99.90;;;;;;5013246;28;20412;-66
2020/12/09 05:02:50;;;;;;;28.70;18.53;;;3.40;99.90;;;;;;5013392;28;20416;-65
2020/12/09 05:05:21;;;;;;;29.70;19.60;;;3.40;99.90;;;;;;5013070;28;20473;-65
2020/12/09 05:07:49;;;;;;;34.53;19.87;;;3.40;99.90;;;;;;5013474;28;20492;-65
2020/12/09 05:10:19;;;;;;;31.30;18.70;;;3.40;99.90;;;;;;5012774;28;20611;-65
2020/12/09 05:12:50;;;;;;;28.23;20.57;;;3.40;99.90;;;;;;5004744;28;20460;-65
2020/12/09 05:15:19;;;;;;;31.23;19.47;;;3.40;99.90;;;;;;5001364;28;20416;-65
2020/12/09 05:17:59;;;;;;;30.53;19.07;;;3.40;99.90;;;;;;5006250;28;20999;-63
2020/12/09 05:20:26;;;;;;;32.00;19.40;;;3.40;99.90;;;;;;4992204;28;20753;-66
2020/12/09 05:22:55;;;;;;;29.07;19.50;;;3.50;99.90;;;;;;5008357;28;20419;-65
2020/12/09 05:25:23;;;;;;;31.87;19.70;;;3.40;99.90;;;;;;4993920;28;20416;-66
2020/12/09 05:27:48;;;;;;;31.33;18.83;;;3.50;99.90;;;;;;4991926;28;20412;-65
2020/12/09 05:30:47;;;;;;;32.10;21.07;;;3.50;99.90;;;;;;4997370;28;20428;-65
2020/12/09 05:33:29;;;;;;;27.87;18.43;;;3.50;99.90;;;;;;4991476;28;20553;-65
2020/12/09 05:36:03;;;;;;;27.60;19.20;;;3.50;99.90;;;;;;5006797;28;20423;-66
2020/12/09 05:38:29;;;;;;;29.97;19.20;;;3.60;99.90;;;;;;5004861;28;20459;-65
2020/12/09 05:40:56;;;;;;;26.27;18.10;;;3.50;99.90;;;;;;5004999;28;20846;-65
2020/12/09 05:43:22;;;;;;;31.03;20.47;;;3.60;99.90;;;;;;5011455;28;20415;-66
2020/12/09 05:45:48;;;;;;;33.40;20.27;;;3.60;99.90;;;;;;5012219;28;20427;-65
2020/12/09 05:48:25;;;;;;;29.20;19.23;;;3.60;99.90;;;;;;5005129;28;20412;-63
2020/12/09 05:50:56;;;;;;;31.13;21.10;;;3.60;99.90;;;;;;5000645;28;20625;-65
2020/12/09 05:53:35;;;;;;;35.90;21.37;;;3.60;99.90;;;;;;5002890;28;20785;-65
2020/12/09 05:56:18;;;;;;;33.73;21.57;;;3.50;99.90;;;;;;5002551;28;20765;-65
2020/12/09 05:58:45;;;;;;;31.67;19.87;;;3.60;99.90;;;;;;4998390;28;20420;-65
2020/12/09 06:01:20;;;;;;;32.40;21.43;;;3.50;99.90;;;;;;4993993;28;20416;-65
2020/12/09 06:03:50;;;;;;;33.17;19.90;;;3.60;99.90;;;;;;4992465;28;20515;-64
2020/12/09 06:06:16;;;;;;;35.57;18.87;;;3.50;99.90;;;;;;4991993;28;20416;-65
2020/12/09 06:08:47;;;;;;;30.93;20.43;;;3.60;99.90;;;;;;5009241;28;20454;-65
2020/12/09 06:11:14;;;;;;;31.20;20.50;;;3.60;99.90;;;;;;5011031;28;20208;-65
2020/12/09 06:13:40;;;;;;;28.43;19.43;;;3.60;99.90;;;;;;5011965;28;20459;-64
2020/12/09 06:16:08;;;;;;;33.60;19.33;;;3.60;99.90;;;;;;5011639;28;20465;-64
2020/12/09 06:18:36;;;;;;;36.73;20.63;;;3.60;99.90;;;;;;4978082;28;20183;-64
2020/12/09 06:21:03;;;;;;;31.57;20.07;;;3.60;99.90;;;;;;4993673;28;20882;-66
2020/12/09 06:23:30;;;;;;;36.63;20.80;;;3.50;99.90;;;;;;5011481;28;20470;-63
2020/12/09 06:25:59;;;;;;;32.97;19.50;;;3.50;99.90;;;;;;5011501;28;20474;-65
2020/12/09 06:28:27;;;;;;;32.57;18.63;;;3.50;99.90;;;;;;5011710;28;20807;-65
2020/12/09 06:30:55;;;;;;;30.50;19.23;;;3.50;99.90;;;;;;5011688;28;20479;-66
2020/12/09 06:33:51;;;;;;;32.13;20.33;;;3.50;99.90;;;;;;5011623;28;20447;-65
2020/12/09 06:36:24;;;;;;;28.43;19.23;;;3.50;99.90;;;;;;5009631;28;20435;-65
2020/12/09 06:39:07;;;;;;;29.93;18.63;;;3.50;99.90;;;;;;5011661;28;20410;-64
2020/12/09 06:41:38;;;;;;;31.07;19.47;;;3.50;99.90;;;;;;5011661;28;20415;-65
2020/12/09 06:44:30;;;;;;;30.33;18.97;;;3.50;99.90;;;;;;5012271;28;20968;-65
2020/12/09 06:47:00;;;;;;;29.33;18.90;;;3.50;99.90;;;;;;5007076;28;20778;-65
2020/12/09 06:49:32;;;;;;;29.47;18.87;;;3.50;99.90;;;;;;5011605;28;20490;-64
2020/12/09 06:52:10;;;;;;;34.63;19.23;;;3.50;99.90;;;;;;5011542;28;20426;-65
2020/12/09 06:54:46;;;;;;;29.80;18.67;;;3.60;99.90;;;;;;5011319;28;20412;-65
2020/12/09 06:57:25;;;;;;;26.33;18.23;;;3.60;99.90;;;;;;5011938;28;20450;-65
2020/12/09 07:00:11;;;;;;;28.40;18.30;;;3.70;99.90;;;;;;5011391;28;20447;-65
2020/12/09 07:02:41;;;;;;;26.83;17.87;;;3.70;99.90;;;;;;5011022;28;20825;-65
2020/12/09 07:05:09;;;;;;;26.97;17.87;;;3.80;99.90;;;;;;5010990;28;20451;-65
2020/12/09 07:07:38;;;;;;;26.87;18.00;;;3.70;99.90;;;;;;5010869;28;20457;-65
2020/12/09 07:10:12;;;;;;;25.70;17.07;;;3.70;99.90;;;;;;5010611;28;20456;-64
2020/12/09 07:12:38;;;;;;;28.30;17.67;;;3.70;99.90;;;;;;5001157;28;21017;-64
2020/12/09 07:15:04;;;;;;;27.20;17.60;;;3.70;99.90;;;;;;5008542;28;20424;-64
2020/12/09 07:17:31;;;;;;;27.70;18.53;;;3.80;99.90;;;;;;5009623;28;20482;-65
2020/12/09 07:19:57;;;;;;;27.80;18.40;;;3.80;99.90;;;;;;4994828;28;20435;-64
2020/12/09 07:22:24;;;;;;;27.33;17.87;;;3.70;99.90;;;;;;4991147;28;20931;-65
2020/12/09 07:24:51;;;;;;;27.70;18.80;;;3.70;99.90;;;;;;4995814;28;20419;-66
2020/12/09 07:27:19;;;;;;;26.13;17.70;;;3.70;99.90;;;;;;5005559;28;20795;-64
2020/12/09 07:29:47;;;;;;;24.00;16.80;;;3.70;99.90;;;;;;4991281;28;20430;-64
2020/12/09 07:32:19;;;;;;;25.40;16.80;;;3.80;99.90;;;;;;4984828;28;20454;-64
2020/12/09 07:35:03;;;;;;;26.57;17.43;;;3.80;99.90;;;;;;5010600;28;20411;-65
2020/12/09 07:37:35;;;;;;;26.20;17.30;;;3.80;99.90;;;;;;5010595;28;20901;-64
2020/12/09 07:40:24;;;;;;;28.30;16.97;;;3.90;99.90;;;;;;4993737;28;20927;-62
2020/12/09 07:43:09;;;;;;;25.93;17.40;;;3.90;99.90;;;;;;4991096;28;20425;-65
2020/12/09 07:45:41;;;;;;;27.70;17.23;;;3.90;99.90;;;;;;4991047;28;20426;-64
2020/12/09 07:48:11;;;;;;;23.17;15.00;;;4.00;99.90;;;;;;4990765;28;20474;-65
2020/12/09 07:50:38;;;;;;;26.20;15.40;;;4.00;99.90;;;;;;5002979;28;20435;-64
2020/12/09 07:53:10;;;;;;;23.03;14.70;;;4.00;99.90;;;;;;4997569;28;20552;-64
2020/12/09 07:55:35;;;;;;;23.30;15.47;;;4.00;99.90;;;;;;5000612;28;20404;-63
2020/12/09 07:58:10;;;;;;;21.47;15.30;;;4.00;99.90;;;;;;4995038;28;20419;-64
2020/12/09 08:00:37;;;;;;;25.23;16.60;;;4.10;99.90;;;;;;5000577;28;20568;-65
2020/12/09 08:03:03;;;;;;;23.97;15.97;;;4.10;99.90;;;;;;4998134;28;20918;-64
2020/12/09 08:05:34;;;;;;;23.47;16.53;;;4.10;99.90;;;;;;4997582;28;20448;-64
2020/12/09 08:08:01;;;;;;;24.70;16.30;;;4.10;99.90;;;;;;4995629;28;20417;-66
2020/12/09 08:10:30;;;;;;;22.37;15.23;;;4.10;99.90;;;;;;5012132;28;21006;-67
2020/12/09 08:13:13;;;;;;;22.70;16.50;;;4.00;99.90;;;;;;4995060;28;20460;-66
2020/12/09 08:15:44;;;;;;;27.23;16.33;;;4.10;99.90;;;;;;4996632;28;20451;-64
2020/12/09 08:18:20;;;;;;;22.77;15.50;;;4.10;99.90;;;;;;5000552;28;20423;-64
2020/12/09 08:20:54;;;;;;;24.97;16.17;;;4.10;99.90;;;;;;4998911;28;20428;-65
2020/12/09 08:23:20;;;;;;;26.47;17.87;;;4.10;99.90;;;;;;4990977;28;20475;-63
2020/12/09 08:25:51;;;;;;;22.47;15.77;;;4.10;99.90;;;;;;4999203;28;20514;-64
2020/12/09 08:28:26;;;;;;;24.07;16.30;;;4.00;99.90;;;;;;4999420;28;20434;-64
2020/12/09 08:30:53;;;;;;;22.93;15.37;;;4.20;99.90;;;;;;4993905;28;20780;-65
2020/12/09 08:33:27;;;;;;;28.33;16.93;;;4.20;99.90;;;;;;4994130;28;20781;-64
2020/12/09 08:36:00;;;;;;;24.97;17.20;;;4.20;99.90;;;;;;5001442;28;20451;-64
2020/12/09 08:38:53;;;;;;;31.90;16.10;;;4.30;99.90;;;;;;5001409;28;20418;-65
2020/12/09 08:41:34;;;;;;;25.10;15.30;;;4.20;99.90;;;;;;5013842;28;20470;-65
2020/12/09 08:44:04;;;;;;;33.73;17.03;;;4.30;99.90;;;;;;5013661;28;20446;-64
2020/12/09 08:46:31;;;;;;;25.37;15.27;;;4.30;99.90;;;;;;4989209;28;20442;-64
2020/12/09 08:48:57;;;;;;;27.20;16.60;;;4.20;99.90;;;;;;5003651;28;20865;-65
2020/12/09 08:51:28;;;;;;;26.53;15.80;;;4.20;99.90;;;;;;4997906;28;20432;-65
2020/12/09 08:53:55;;;;;;;31.93;16.27;;;4.20;99.90;;;;;;4994246;28;21059;-65
2020/12/09 08:56:28;;;;;;;24.37;16.80;;;4.20;99.90;;;;;;4994227;28;20810;-65
2020/12/09 08:58:53;;;;;;;27.90;16.73;;;4.30;99.90;;;;;;5001901;28;20428;-65
2020/12/09 09:01:19;;;;;;;25.07;15.83;;;4.30;99.90;;;;;;5001238;28;20416;-64
2020/12/09 09:03:46;;;;;;;27.23;16.60;;;4.30;99.90;;;;;;5001868;28;20184;-65
2020/12/09 09:06:12;;;;;;;24.93;16.23;;;4.40;99.90;;;;;;4993741;28;20935;-65
2020/12/09 09:08:38;;;;;;;28.03;16.53;;;4.40;99.90;;;;;;4995806;28;20428;-64
2020/12/09 09:11:04;;;;;;;25.13;16.03;;;4.40;99.90;;;;;;5013774;28;21558;-65
2020/12/09 09:13:29;;;;;;;25.87;17.10;;;4.50;99.90;;;;;;5013046;28;20286;-64
2020/12/09 09:15:55;;;;;;;23.27;16.33;;;4.50;99.90;;;;;;5013249;28;20172;-65
2020/12/09 09:18:20;;;;;;;25.53;15.93;;;4.50;99.90;;;;;;5013120;28;20183;-64
2020/12/09 09:20:47;;;;;;;23.60;16.50;;;4.50;99.90;;;;;;5012921;28;20239;-66
2020/12/09 09:23:13;;;;;;;32.90;17.50;;;4.60;99.90;;;;;;5013013;28;20177;-65
2020/12/09 09:25:38;;;;;;;32.20;17.83;;;4.50;99.90;;;;;;5012781;28;20430;-64
2020/12/09 09:28:04;;;;;;;28.00;17.27;;;4.60;99.90;;;;;;5013331;28;20745;-64
2020/12/09 09:30:30;;;;;;;32.87;17.57;;;4.70;99.90;;;;;;5012898;28;20176;-63
2020/12/09 09:32:56;;;;;;;28.90;18.03;;;4.80;99.90;;;;;;5012756;28;20528;-65
2020/12/09 09:35:22;;;;;;;28.73;17.30;;;4.80;99.90;;;;;;5012935;28;20815;-65
2020/12/09 09:37:48;;;;;;;32.00;16.60;;;4.80;99.90;;;;;;5012672;28;20438;-65
2020/12/09 09:40:14;;;;;;;25.90;16.83;;;4.80;99.90;;;;;;5012417;28;20207;-64
2020/12/09 09:42:40;;;;;;;27.07;16.97;;;4.90;99.90;;;;;;5012552;28;20267;-65
2020/12/09 09:45:08;;;;;;;24.53;15.47;;;4.90;99.90;;;;;;5012505;28;20218;-65
2020/12/09 09:47:34;;;;;;;26.40;16.00;;;5.00;99.90;;;;;;5012733;28;20498;-66
2020/12/09 09:50:00;;;;;;;23.50;16.27;;;5.00;99.90;;;;;;5012362;28;20451;-64
2020/12/09 09:52:26;;;;;;;25.70;16.27;;;5.00;99.90;;;;;;5012737;28;20486;-65
2020/12/09 09:54:52;;;;;;;26.30;16.57;;;5.00;99.90;;;;;;5012487;28;20685;-64
2020/12/09 09:57:17;;;;;;;24.43;16.23;;;5.10;99.90;;;;;;5012791;28;20172;-64
2020/12/09 09:59:51;;;;;;;28.47;17.00;;;5.20;99.90;;;;;;5010371;28;20318;-64
2020/12/09 10:02:17;;;;;;;29.07;17.70;;;5.20;99.90;;;;;;5012154;28;20948;-65
2020/12/09 10:04:43;;;;;;;24.73;15.57;;;5.30;99.90;;;;;;5012374;28;20427;-65
2020/12/09 10:07:09;;;;;;;24.23;15.97;;;5.40;99.90;;;;;;5011998;28;20192;-65
2020/12/09 10:09:35;;;;;;;21.73;14.93;;;5.40;99.90;;;;;;5009599;28;20585;-64
2020/12/09 10:12:07;;;;;;;27.83;15.80;;;5.40;99.90;;;;;;5013974;28;20451;-64
2020/12/09 10:14:32;;;;;;;25.70;15.13;;;5.40;99.90;;;;;;5010273;28;20224;-65
2020/12/09 10:16:59;;;;;;;21.97;15.20;;;5.40;99.90;;;;;;5011448;28;20886;-65
2020/12/09 10:19:24;;;;;;;24.97;15.73;;;5.50;99.90;;;;;;5011708;28;20180;-64
2020/12/09 10:21:50;;;;;;;25.53;15.93;;;5.40;99.90;;;;;;5011637;28;20482;-64
2020/12/09 10:24:16;;;;;;;26.73;16.30;;;5.50;99.90;;;;;;5011510;28;20204;-64
2020/12/09 10:26:43;;;;;;;20.87;14.27;;;5.60;99.90;;;;;;5011413;28;20188;-65
2020/12/09 10:29:09;;;;;;;22.57;15.90;;;5.60;99.90;;;;;;5011598;28;20176;-63
2020/12/09 10:31:40;;;;;;;28.93;14.73;;;5.60;99.90;;;;;;5011385;28;20476;-64
2020/12/09 10:34:08;;;;;;;22.37;14.60;;;5.60;99.90;;;;;;5009640;28;20494;-64
2020/12/09 10:36:35;;;;;;;21.77;15.00;;;5.50;99.90;;;;;;5011211;28;20449;-64
2020/12/09 10:39:02;;;;;;;25.50;16.83;;;5.60;99.90;;;;;;5011703;28;20412;-64
2020/12/09 10:41:28;;;;;;;29.47;18.30;;;5.70;99.90;;;;;;5011480;28;20418;-64
2020/12/09 10:43:59;;;;;;;24.47;16.73;;;5.70;99.90;;;;;;5011333;28;20814;-65
2020/12/09 10:46:35;;;;;;;24.30;15.93;;;5.70;99.90;;;;;;5011905;28;20599;-64
2020/12/09 10:49:06;;;;;;;20.90;13.83;;;5.70;99.90;;;;;;5010402;28;20517;-64
2020/12/09 10:51:32;;;;;;;21.70;15.60;;;5.60;99.90;;;;;;5011496;28;20425;-64
2020/12/09 10:53:59;;;;;;;22.43;16.10;;;5.70;99.90;;;;;;5010961;28;20487;-65
2020/12/09 10:56:29;;;;;;;21.37;15.40;;;5.70;99.90;;;;;;5011490;28;20513;-66
2020/12/09 10:58:56;;;;;;;23.87;16.00;;;5.70;99.90;;;;;;5011576;28;20430;-65
2020/12/09 11:01:24;;;;;;;23.83;15.57;;;5.70;99.90;;;;;;5011260;28;20415;-66
2020/12/09 11:03:50;;;;;;;22.63;15.37;;;5.70;99.90;;;;;;5011244;28;20431;-66
2020/12/09 11:06:16;;;;;;;20.63;13.80;;;5.70;99.90;;;;;;5011117;28;20420;-65
2020/12/09 11:08:42;;;;;;;19.90;12.97;;;5.70;99.90;;;;;;5011015;28;20767;-66
2020/12/09 11:11:15;;;;;;;21.93;13.70;;;5.70;99.90;;;;;;5009755;28;20219;-65
2020/12/09 11:13:48;;;;;;;22.47;13.67;;;5.70;99.90;;;;;;5028956;28;20562;-65
2020/12/09 11:16:14;;;;;;;20.10;12.33;;;5.70;99.90;;;;;;5012220;28;20424;-65
2020/12/09 11:18:41;;;;;;;23.00;13.20;;;5.60;99.90;;;;;;5015934;28;20411;-66
2020/12/09 11:21:07;;;;;;;19.77;13.37;;;5.60;99.90;;;;;;5030413;28;20904;-65
2020/12/09 11:23:32;;;;;;;22.27;14.43;;;5.50;99.90;;;;;;5030289;28;20437;-65
2020/12/09 11:25:58;;;;;;;18.73;12.90;;;5.60;99.90;;;;;;5021611;28;20179;-64
2020/12/09 11:28:23;;;;;;;27.20;14.73;;;5.60;99.90;;;;;;5017571;28;20179;-65
2020/12/09 11:30:49;;;;;;;19.20;13.23;;;5.60;99.90;;;;;;5027136;28;20547;-65
2020/12/09 11:33:14;;;;;;;18.63;12.80;;;5.60;99.90;;;;;;5010705;28;20200;-66
2020/12/09 11:35:42;;;;;;;23.43;13.80;;;5.50;99.90;;;;;;5010994;28;20176;-66
2020/12/09 11:38:08;;;;;;;19.73;12.50;;;5.60;99.90;;;;;;5011728;28;20545;-66
2020/12/09 11:40:34;;;;;;;18.77;12.47;;;5.50;99.90;;;;;;5013580;28;20404;-64
2020/12/09 11:42:59;;;;;;;19.43;12.13;;;5.60;99.90;;;;;;5010871;28;20247;-66
2020/12/09 11:45:31;;;;;;;21.33;13.17;;;5.50;99.90;;;;;;5010687;28;20184;-65
2020/12/09 11:50:46;;;;;;;18.23;12.93;;;5.50;99.90;;;;;;5022436;28;20529;-66
2020/12/09 11:53:12;;;;;;;22.87;14.33;;;5.60;99.90;;;;;;5029858;28;20881;-66
2020/12/09 11:55:37;;;;;;;18.17;12.33;;;5.50;99.90;;;;;;5018498;28;20502;-65
2020/12/09 11:58:10;;;;;;;20.23;12.27;;;5.50;99.90;;;;;;5017470;28;20504;-65
2020/12/09 12:00:36;;;;;;;20.23;14.47;;;5.60;99.90;;;;;;5026106;28;20176;-65
2020/12/09 12:03:02;;;;;;;20.43;13.43;;;5.50;99.90;;;;;;4994198;28;20426;-64
2020/12/09 12:05:28;;;;;;;23.00;14.17;;;5.40;99.90;;;;;;5032252;28;20262;-66
2020/12/09 12:07:54;;;;;;;19.70;13.00;;;5.40;99.90;;;;;;5025868;28;20465;-65
2020/12/09 12:10:20;;;;;;;18.43;11.83;;;5.40;99.90;;;;;;5024870;28;20447;-65
2020/12/09 12:12:45;;;;;;;18.57;12.87;;;5.40;99.90;;;;;;5024149;28;20266;-64
2020/12/09 12:15:11;;;;;;;20.90;12.90;;;5.40;99.90;;;;;;5023103;28;20169;-64
2020/12/09 12:17:37;;;;;;;19.93;12.40;;;5.40;99.90;;;;;;5028242;28;20263;-64
2020/12/09 12:20:03;;;;;;;30.03;13.10;;;5.30;99.90;;;;;;5025752;28;20188;-65
2020/12/09 12:22:29;;;;;;;17.17;11.50;;;5.40;99.90;;;;;;5024209;28;20184;-65
2020/12/09 12:24:54;;;;;;;16.47;11.63;;;5.40;99.90;;;;;;5020977;28;20457;-64
2020/12/09 12:27:21;;;;;;;30.07;13.13;;;5.40;99.90;;;;;;5024171;28;20264;-64
2020/12/09 12:29:47;;;;;;;21.93;12.17;;;5.30;99.90;;;;;;5006156;28;20266;-64
2020/12/09 12:32:13;;;;;;;20.20;11.83;;;5.30;99.90;;;;;;5006910;28;20928;-64
2020/12/09 12:34:39;;;;;;;26.67;13.07;;;5.30;99.90;;;;;;5023789;28;20435;-65
2020/12/09 12:37:06;;;;;;;17.20;11.57;;;5.30;99.90;;;;;;5026167;28;20207;-64
2020/12/09 12:39:31;;;;;;;17.73;12.37;;;5.30;99.90;;;;;;4997939;28;20199;-64
2020/12/09 12:41:57;;;;;;;19.93;13.07;;;5.30;99.90;;;;;;5021927;28;20933;-64
2020/12/09 12:44:23;;;;;;;23.33;12.17;;;5.30;99.90;;;;;;5026684;28;20179;-65